Campanya meteocatpedra

Dades EMA Port de Barcelona - Bocana Sud

?
?
Resum diari
Dades diàries de l'estació meteorològica
Ratxa màxima del vent (10 m) 43.9 km/h - 325º 8:09 TU

El tram horari està expressat en Temps Universal (TU). Cal sumar una hora en horari d'hivern i dues en horari d'estiu per passar a l'hora oficial.

Port de Barcelona - Bocana Sud

Metadades estació meteorol´gica
Municipi El Prat de Llobregat
Comarca Baix Llobregat
Altitud 3 m
Data alta 08.04.2015
Estat actual Operativa
Dades de període
Període
TU
VVM (10 m)
km/h
DVM (10 m)
graus
VVX (10 m)
km/h
00:00 - 00:30 11.9 202 17.3
00:30 - 01:00 14.4 207 19.1
01:00 - 01:30 8.6 244 11.5
01:30 - 02:00 5.4 211 7.9
02:00 - 02:30 4.0 239 7.2
02:30 - 03:00 7.2 298 13.7
03:00 - 03:30 10.4 289 15.1
03:30 - 04:00 19.8 303 31.3
04:00 - 04:30 29.5 315 41.8
04:30 - 05:00 24.8 317 35.3
05:00 - 05:30 20.5 311 26.6
05:30 - 06:00 27.7 315 38.5
06:00 - 06:30 23.8 316 34.2
06:30 - 07:00 24.8 316 35.6
07:00 - 07:30 26.3 316 38.2
07:30 - 08:00 29.2 320 42.8
08:00 - 08:30 30.6 318 43.9
08:30 - 09:00 29.5 315 41.0
09:00 - 09:30 25.2 311 39.6
09:30 - 10:00 23.8 319 34.2
10:00 - 10:30 27.0 320 36.7
10:30 - 11:00 23.0 312 33.8
11:00 - 11:30 22.7 310 32.0
11:30 - 12:00 17.6 305 28.1
12:00 - 12:30 10.8 292 22.7
12:30 - 13:00 14.0 221 24.5
13:00 - 13:30 20.9 206 29.2
13:30 - 14:00 25.9 218 30.6
14:00 - 14:30 25.2 219 30.2
14:30 - 15:00 24.8 213 28.4
15:00 - 15:30 24.1 200 28.4
15:30 - 16:00 23.4 202 27.4
16:00 - 16:30 23.0 205 28.4
16:30 - 17:00 23.8 202 28.8
17:00 - 17:30 22.0 201 25.9
17:30 - 18:00 20.5 208 24.8
18:00 - 18:30 19.4 211 24.1
18:30 - 19:00 17.3 218 22.7
19:00 - 19:30 16.6 221 21.2
19:30 - 20:00 (s/d) (s/d) (s/d)

Les dades en taronja només han passat un control de qualitat automàtic. Resta pendent la seva validació definitiva.